x

Canaveral East - 120nm East Of Cape Canaveral (41010) Wave Buoy

2:50pm - Tue 28th Apr 2015 All times are EDT. -4 hours from GMT.

  • Sig Wave height 2.3ft
  • Swell Direction
  • Peak Period 8s
  • Average Period 5s
  • Wind
    13mph, 16mph gusts
  • Sea Temp 79°f
  • Air Temp 73°f
  • Sea Pressure 1010.3mb
  • Canaveral East - 120nm East Of Cape Canaveral
  • Canaveral East - 120nm East Of Cape Canaveral

More Historic Weather Station data

Upgrade to MSW Pro to gain access to the past 30 days of data for over 8000 Wavebouys and Weather Stations around the globe.

Join Pro

Comparision Forecast

View Surf forecast
   
Tue 04/28 2:50pm 2.5ft 8s 5s 13 16 mph 1010.3mb 79f 73f
2:20pm  -   -   -  13 16 mph 1010.9mb 79f 73f
1:50pm 2.5ft 9s 4s 13 16 mph 1010.9mb 79f 73f
1:20pm  -   -   -  13 16 mph 1011.2mb 79f 73f
12:50pm 2.5ft 9s 4s 13 16 mph 1011.2mb 79f 74f
12:20pm  -   -   -  11 13 mph 1011.4mb 79f 74f
11:50am 2.5ft 10s 5s 16 18 mph 1010.7mb 79f 74f
11:20am  -   -   -  13 18 mph 1011.5mb 79f 74f
10:50am 2.5ft 6s 5s 13 18 mph 1011.7mb 79f 74f
10:20am  -   -   -  13 18 mph 1011.4mb 79f 74f
9:50am 2.5ft 6s 5s 9 11 mph 1011.8mb 79f 74f
9:20am  -   -   -  9 11 mph 1011.2mb 79f 74f
8:50am 2.5ft 8s 5s 9 13 mph 1011.2mb 79f 74f
8:20am  -   -   -  7 9 mph 1011.6mb 79f 74f
7:50am 2.5ft 6s 5s 7 9 mph 1011.3mb 79f 74f
7:20am  -   -   -  9 11 mph 1010.6mb 79f 74f
6:50am 2.5ft 6s 5s 9 11 mph 1010.5mb 79f 74f
6:20am  -   -   -  11 16 mph 1009.8mb 79f 73f
5:50am 2.5ft 6s 5s 13 18 mph 1009.6mb 79f 73f
5:20am  -   -   -  11 16 mph 1009.7mb 79f 74f
4:50am 2.5ft 7s 5s 9 11 mph 1009.5mb 79f 74f
4:20am  -   -   -  7
mph
1009.7mb 79f 74f
3:50am 2.5ft 5s 5s 7 9 mph 1009.7mb 79f 74f
3:20am  -   -   -  9 11 mph 1009.6mb 79f 74f
2:50am 2.5ft 6s 5s 11 13 mph 1009.8mb 79f 74f
2:20am  -   -   -  9
mph
1010.9mb 79f 74f
1:50am 2.5ft 5s 5s 4 7 mph 1011mb 79f 74f
1:20am  -   -   -  4 7 mph 1011.5mb 79f 74f
12:50am 3ft 6s 5s 9 11 mph 1011.1mb 79f 74f
12:20am  -   -   -  9 11 mph 1011.3mb 79f 75f
Mon 04/27 11:50pm 3ft 6s 5s 9 11 mph 1011.4mb 79f 75f
11:20pm  -   -   -  11 13 mph 1011.2mb 79f 75f
10:50pm 3ft 5s 4s 13 16 mph 1011.2mb 79f 75f
10:20pm  -   -   -  13 16 mph 1010.9mb 79f 75f
9:50pm 3.5ft 6s 5s 11 13 mph 1010.8mb 79f 75f
9:20pm  -   -   -  13 16 mph 1010.5mb 79f 75f
8:50pm 3.5ft 6s 4s 18 20 mph 1009.6mb 79f 76f
8:20pm  -   -   -  18 22 mph 1008.9mb 80f 76f
7:50pm 3.5ft 6s 5s 16 18 mph 1008.9mb 80f 76f
7:20pm  -   -   -  16 18 mph 1008.7mb 80f 77f
6:50pm 4ft 6s 5s 18 22 mph 1009mb 80f 78f
6:20pm  -   -   -  18 20 mph 1008.9mb 80f 78f
5:50pm 3.5ft 6s 5s 16 18 mph 1008.8mb 80f 78f
5:20pm  -   -   -  16 18 mph 1008.5mb 80f 78f
4:50pm 4.5ft 6s 5s 16 20 mph 1007.9mb 80f 78f
4:20pm  -   -   -  16 18 mph 1007.6mb 80f 78f
3:50pm 4.5ft 6s 5s 16 20 mph 1007.8mb 79f 78f
3:20pm  -   -   -  18 20 mph 1007.6mb 79f 78f
2:50pm 4.5ft 6s 5s 18 22 mph 1007.9mb 79f 79f
2:20pm  -   -   -  18 20 mph 1007.9mb 79f 79f
1:50pm 5ft 6s 5s 18 20 mph 1007.9mb 79f 79f
1:20pm  -   -   -  18 20 mph 1007.5mb 79f 79f
12:50pm 5ft 6s 5s 18 20 mph 1007.8mb 79f 79f
12:20pm  -   -   -  20 22 mph 1008.5mb 79f 79f
11:50am 5ft 6s 5s 20 27 mph 1008.4mb 79f 79f
11:20am  -   -   -  20 25 mph 1008.2mb 79f 80f
10:50am 5ft 6s 5s 22 27 mph 1008.8mb 79f 80f
10:20am  -   -   -  20 22 mph 1008.4mb 79f 80f
9:50am 5ft 5s 5s 22 25 mph 1008.1mb 79f 79f
9:20am  -   -   -  18 22 mph 1007.3mb 79f 79f
8:50am 4.5ft 6s 4s 20 22 mph 1007.6mb 79f 80f
8:20am  -   -   -  20 25 mph 1007.3mb 79f 80f
7:50am 5ft 6s 4s 20 25 mph 1006.7mb 79f 80f
7:20am  -   -   -  18 20 mph 1006mb 79f 80f
6:50am 4.5ft 5s 4s 20 25 mph 1005.7mb 79f 80f
6:20am  -   -   -  20 22 mph 1005.2mb 79f 80f
5:50am 4.5ft 5s 4s 20 25 mph 1005.2mb 79f 80f
5:20am  -   -   -  20 27 mph 1005mb 79f 80f
4:50am 3.5ft 4s 4s 22 27 mph 1004.5mb 79f 80f
4:20am  -   -   -  22 25 mph 1004.3mb 79f 80f
3:50am 3ft 4s 4s 18 22 mph 1003.9mb 79f 80f
3:20am  -   -   -  20 25 mph 1004.5mb 79f 80f
2:50am 3ft 6s 4s 22 27 mph 1004.9mb 79f 80f
2:20am  -   -   -  20 22 mph 1004.7mb 79f 80f
1:50am 2.5ft 5s 4s 16 20 mph 1005.2mb 79f 80f
1:20am  -   -   -  18 20 mph 1006.1mb 78f 80f
12:50am 3ft 6s 5s 16 18 mph 1006.4mb 78f 80f
12:20am  -   -   -  13 16 mph 1006.5mb 78f 80f
Sun 04/26 11:50pm 3ft 5s 5s 13 16 mph 1006.4mb 78f 80f
11:20pm  -   -   -  13 16 mph 1006.4mb 78f 79f
10:50pm 3.5ft 6s 5s 11 16 mph 1006.7mb 78f 79f
10:20pm  -   -   -  11
mph
1007.1mb 78f 79f
9:50pm 3.5ft 6s 5s 11 13 mph 1006.9mb 78f 79f
9:20pm  -   -   -  11 13 mph 1006.8mb 78f 79f
8:50pm 3.5ft 6s 5s 9 11 mph 1006.9mb 78f 79f
8:20pm  -   -   -  7
mph
1006.8mb 78f 79f
7:50pm 4ft 6s 5s 9 11 mph 1006.4mb 78f 79f
7:20pm  -   -   -  9 11 mph 1006.3mb 79f 79f
6:50pm 4.5ft 6s 5s 11
mph
1006.4mb 79f 79f
6:20pm  -   -   -  11
mph
1006.3mb 79f 80f
5:50pm 5ft 6s 5s 13
mph
1006.3mb 79f 80f
5:20pm  -   -   -  13 16 mph 1006.5mb 79f 80f
4:50pm 5ft 6s 5s 13 16 mph 1006.4mb 79f 79f
4:20pm  -   -   -  16 18 mph 1006.6mb 79f 79f
3:50pm 5ft 7s 5s 18 20 mph 1006.7mb 79f 79f
3:20pm  -   -   -  18 20 mph 1006.8mb 79f 79f
2:50pm 5ft 6s 5s 18 22 mph 1007.3mb 79f 80f
2:20pm  -   -   -  20 25 mph 1007.5mb 79f 79f
1:50pm 5ft 6s 5s 20 25 mph 1007.9mb 79f 79f
1:20pm  -   -   -  20 25 mph 1007.7mb 79f 79f
12:50pm 6ft 6s 5s 20 22 mph 1007.9mb 79f 79f
12:20pm  -   -   -  20 22 mph 1008.1mb 79f 79f
11:50am 6ft 7s 5s 18 22 mph 1008mb 79f 79f
11:20am  -   -   -  20 25 mph 1008.1mb 79f 79f
10:50am 6.5ft 6s 5s 20 25 mph 1008mb 79f 79f
10:20am  -   -   -  22 27 mph 1008.1mb 79f 79f
9:50am 6ft 6s 5s 22 27 mph 1007.9mb 79f 79f
9:20am  -   -   -  22 27 mph 1007.9mb 79f 79f
8:50am 6ft 6s 5s 22 29 mph 1007.9mb 79f 79f
8:20am  -   -   -  25 31 mph 1007.6mb 79f 79f
7:50am 5ft 5s 4s 25 29 mph 1007.4mb 79f 79f
7:20am  -   -   -  25 31 mph 1007mb 79f 79f
6:50am 5ft 5s 5s 25 29 mph 1006.7mb 79f 79f
6:20am  -   -   -  25 27 mph 1006.2mb 79f 79f
5:50am 4.5ft 6s 5s 22 27 mph 1006.1mb 79f 79f
5:20am  -   -   -  22 27 mph 1005.9mb 79f 80f
4:50am 5ft 5s 5s 20 25 mph 1006mb 79f 80f
4:20am  -   -   -  20 22 mph 1005.8mb 79f 80f
3:50am 4.5ft 5s 5s 22 27 mph 1005.7mb 79f 80f
3:20am  -   -   -  20 25 mph 1005.5mb 79f 80f
2:50am 4.5ft 5s 5s 25 29 mph 1005mb 79f 80f
2:20am  -   -   -  27 31 mph 1005.5mb 79f 80f
1:50am 4.5ft 5s 5s 25 31 mph 1008.1mb 79f 80f
1:20am  -   -   -  25 29 mph 1008.3mb 79f 80f
12:50am 4.5ft 5s 5s 25 29 mph 1008.7mb 79f 79f
12:20am  -   -   -  25 29 mph 1008.9mb 79f 80f
Sat 04/25 11:50pm 4.5ft 5s 5s 25 29 mph 1008.8mb 79f 80f
11:20pm  -   -   -  25 29 mph 1009.1mb 79f 80f
10:50pm 4.5ft 4s 5s 22 29 mph 1009.1mb 79f 80f
10:20pm  -   -   -  25 29 mph 1008.6mb 79f 79f
9:50pm 4.5ft 4s 5s 20 27 mph 1009.1mb 80f 79f
9:20pm  -   -   -  22 25 mph 1009.3mb 79f 79f
8:50pm 4ft 14s 5s 20 27 mph 1009.5mb 79f 79f
8:20pm  -   -   -  20 25 mph 1009.7mb 80f 79f
7:50pm 4ft 14s 5s 20 25 mph 1009.7mb 80f 79f
7:20pm  -   -   -  18 20 mph 1010.1mb 80f 79f
6:50pm 3.5ft 8s 5s 18 20 mph 1010.5mb 80f 79f
6:20pm  -   -   -  18 22 mph 1010.6mb 80f 79f
5:50pm 3.5ft 13s 5s 16 20 mph 1010.9mb 80f 79f
5:20pm  -   -   -  18 22 mph 1010.7mb 80f 79f
4:50pm 3.5ft 14s 5s 20 22 mph 1010.7mb 80f 79f
4:20pm  -   -   -  20 22 mph 1011.1mb 80f 78f
3:50pm 3.5ft 14s 5s 18 22 mph 1011.4mb 80f 78f
3:20pm  -   -   -  18 20 mph 1011.6mb 80f 78f
2:50pm 3.5ft 14s 6s 16 18 mph 1012.6mb 80f 78f
2:20pm  -   -   -  13 16 mph 1013.5mb 80f 78f
1:50pm 3.5ft 14s 6s 13 16 mph 1013.7mb 80f 78f
1:20pm  -   -   -  13 16 mph 1014.1mb 80f 78f
12:50pm 3.5ft 8s 6s 13 16 mph 1014.6mb 80f 78f
12:20pm  -   -   -  13 18 mph 1014.8mb 80f 78f
11:50am 3.5ft 14s 6s 13 16 mph 1014.7mb 79f 77f
11:20am  -   -   -  13 16 mph 1014.6mb 79f 77f
10:50am 3.5ft 13s 6s 13 16 mph 1014.8mb 79f 77f
10:20am  -   -   -  13 16 mph 1014.7mb 79f 77f
9:50am 3.5ft 9s 6s 13 16 mph 1014.6mb 79f 76f
9:20am  -   -   -  11 13 mph 1014.9mb 79f 76f
8:50am 4ft 10s 6s 9 11 mph 1015.2mb 79f 76f
8:20am  -   -   -  9 13 mph 1015mb 79f 76f
7:50am 4ft 8s 6s 9 13 mph 1014.9mb 79f 76f
7:20am  -   -   -  9 11 mph 1014.8mb 78f 76f
6:50am 4.5ft 8s 6s 9 11 mph 1014.4mb 78f 75f
6:20am  -   -   -  11 13 mph 1013.9mb 78f 75f
5:50am 4.5ft 7s 6s 9 11 mph 1014.3mb 78f 75f
5:20am  -   -   -  9 11 mph 1014.4mb 78f 74f
4:50am 4.5ft 9s 6s 9 11 mph 1014.1mb 78f 74f
4:20am  -   -   -  9 11 mph 1014.6mb 78f 74f
3:50am 4.5ft 9s 6s 9 11 mph 1014.6mb 78f 74f
3:20am  -   -   -  11 13 mph 1014.2mb 78f 74f
2:50am 4.5ft 9s 6s 11 13 mph 1014.7mb 78f 74f
2:20am  -   -   -  13 16 mph 1014.6mb 78f 74f
1:50am 5ft 8s 6s 11 16 mph 1015mb 78f 74f
1:20am  -   -   -  11 16 mph 1015.3mb 78f 75f
12:50am 4.5ft 8s 6s 11 16 mph 1015.3mb 78f 75f
12:20am  -   -   -  11 13 mph 1015.7mb 78f 75f
Fri 04/24 11:50pm 4.5ft 14s 6s 13 16 mph 1015.8mb 78f 75f
11:20pm  -   -   -  13
mph
1016mb 78f 75f
10:50pm 4.5ft 15s 5s 13 16 mph 1016mb 78f 75f
10:20pm  -   -   -  13 16 mph 1016.2mb 78f 75f
9:50pm 4.5ft 12s 6s 13 16 mph 1016mb 78f 75f
9:20pm  -   -   -  11 16 mph 1015.9mb 78f 76f
8:50pm 4.5ft 14s 6s 13 16 mph 1015.6mb 79f 75f
8:20pm  -   -   -  13 18 mph 1015.5mb 79f 75f